sensor_id;sensor_type;location;lat;lon;timestamp;pressure;altitude;pressure_sealevel;temperature;humidity
29907;BME280;16776;50.958;10.994;2024-02-21T00:02:18;99140.22;;;6.32;99.72
29907;BME280;16776;50.958;10.994;2024-02-21T00:04:45;99138.50;;;6.33;99.73
29907;BME280;16776;50.958;10.994;2024-02-21T00:07:11;99134.22;;;6.33;99.83
29907;BME280;16776;50.958;10.994;2024-02-21T00:09:39;99132.53;;;6.35;99.89
29907;BME280;16776;50.958;10.994;2024-02-21T00:12:06;99124.88;;;6.32;99.97
29907;BME280;16776;50.958;10.994;2024-02-21T00:14:33;99118.88;;;6.33;99.09
29907;BME280;16776;50.958;10.994;2024-02-21T00:17:00;99112.94;;;6.33;99.30
29907;BME280;16776;50.958;10.994;2024-02-21T00:19:26;99112.94;;;6.33;99.30
29907;BME280;16776;50.958;10.994;2024-02-21T00:21:53;99103.53;;;6.33;99.69
29907;BME280;16776;50.958;10.994;2024-02-21T00:24:19;99099.28;;;6.32;99.14
29907;BME280;16776;50.958;10.994;2024-02-21T00:26:47;99098.41;;;6.33;99.48
29907;BME280;16776;50.958;10.994;2024-02-21T00:29:14;99087.34;;;6.31;99.02
29907;BME280;16776;50.958;10.994;2024-02-21T00:31:40;99092.47;;;6.31;99.09
29907;BME280;16776;50.958;10.994;2024-02-21T00:34:07;99090.75;;;6.29;99.54
29907;BME280;16776;50.958;10.994;2024-02-21T00:36:34;99095.00;;;6.30;99.40
29907;BME280;16776;50.958;10.994;2024-02-21T00:39:00;99091.59;;;6.29;99.09
29907;BME280;16776;50.958;10.994;2024-02-21T00:41:27;99085.63;;;6.30;98.95
29907;BME280;16776;50.958;10.994;2024-02-21T00:43:55;99083.94;;;6.32;99.06
29907;BME280;16776;50.958;10.994;2024-02-21T00:46:21;99072.00;;;6.30;99.57
29907;BME280;16776;50.958;10.994;2024-02-21T00:48:48;99090.75;;;6.32;99.30
29907;BME280;16776;50.958;10.994;2024-02-21T00:51:15;99087.34;;;6.33;99.59
29907;BME280;16776;50.958;10.994;2024-02-21T00:53:42;99080.50;;;6.33;99.41
29907;BME280;16776;50.958;10.994;2024-02-21T00:56:08;99071.97;;;6.36;99.74
29907;BME280;16776;50.958;10.994;2024-02-21T00:58:35;99072.84;;;6.36;99.02
29907;BME280;16776;50.958;10.994;2024-02-21T01:01:03;99067.72;;;6.39;99.07
29907;BME280;16776;50.958;10.994;2024-02-21T01:03:30;99055.78;;;6.38;98.89
29907;BME280;16776;50.958;10.994;2024-02-21T01:05:56;99063.47;;;6.37;99.13
29907;BME280;16776;50.958;10.994;2024-02-21T01:08:23;99060.03;;;6.36;99.43
29907;BME280;16776;50.958;10.994;2024-02-21T01:10:49;99053.22;;;6.35;99.37
29907;BME280;16776;50.958;10.994;2024-02-21T01:13:16;99063.44;;;6.35;99.31
29907;BME280;16776;50.958;10.994;2024-02-21T01:15:43;99061.78;;;6.33;99.08
29907;BME280;16776;50.958;10.994;2024-02-21T01:18:10;99054.94;;;6.35;99.23
29907;BME280;16776;50.958;10.994;2024-02-21T01:20:37;99058.34;;;6.31;99.95
29907;BME280;16776;50.958;10.994;2024-02-21T01:23:03;99047.28;;;6.30;99.23
29907;BME280;16776;50.958;10.994;2024-02-21T01:25:30;99042.16;;;6.30;99.49
29907;BME280;16776;50.958;10.994;2024-02-21T01:27:57;99042.16;;;6.29;99.90
29907;BME280;16776;50.958;10.994;2024-02-21T01:30:23;99038.75;;;6.28;99.69
29907;BME280;16776;50.958;10.994;2024-02-21T01:32:50;99034.47;;;6.29;99.88
29907;BME280;16776;50.958;10.994;2024-02-21T01:35:18;99028.50;;;6.28;100.00
29907;BME280;16776;50.958;10.994;2024-02-21T01:37:44;99022.56;;;6.23;99.90
29907;BME280;16776;50.958;10.994;2024-02-21T01:40:12;99014.91;;;6.23;100.00
29907;BME280;16776;50.958;10.994;2024-02-21T01:42:38;99016.59;;;6.21;99.96
29907;BME280;16776;50.958;10.994;2024-02-21T01:45:06;99020.03;;;6.20;100.00
29907;BME280;16776;50.958;10.994;2024-02-21T01:47:33;99021.75;;;6.18;99.86
29907;BME280;16776;50.958;10.994;2024-02-21T01:50:00;99025.16;;;6.17;100.00
29907;BME280;16776;50.958;10.994;2024-02-21T01:52:29;99021.75;;;6.18;100.00
29907;BME280;16776;50.958;10.994;2024-02-21T01:54:57;99014.91;;;6.15;100.00
29907;BME280;16776;50.958;10.994;2024-02-21T01:57:24;99003.84;;;6.15;100.00
29907;BME280;16776;50.958;10.994;2024-02-21T01:59:51;99007.25;;;6.15;100.00
29907;BME280;16776;50.958;10.994;2024-02-21T02:02:18;99008.09;;;6.17;99.96
29907;BME280;16776;50.958;10.994;2024-02-21T02:04:45;99014.91;;;6.17;100.00
29907;BME280;16776;50.958;10.994;2024-02-21T02:07:12;99008.94;;;6.15;100.00
29907;BME280;16776;50.958;10.994;2024-02-21T02:09:40;99016.63;;;6.18;100.00
29907;BME280;16776;50.958;10.994;2024-02-21T02:12:07;99016.63;;;6.15;100.00
29907;BME280;16776;50.958;10.994;2024-02-21T02:14:34;99017.47;;;6.15;100.00
29907;BME280;16776;50.958;10.994;2024-02-21T02:17:00;99014.06;;;6.15;100.00
29907;BME280;16776;50.958;10.994;2024-02-21T02:19:27;99014.91;;;6.17;100.00
29907;BME280;16776;50.958;10.994;2024-02-21T02:21:58;99015.75;;;6.22;100.00
29907;BME280;16776;50.958;10.994;2024-02-21T02:24:27;99020.00;;;6.21;100.00
29907;BME280;16776;50.958;10.994;2024-02-21T02:26:54;99017.47;;;6.20;100.00
29907;BME280;16776;50.958;10.994;2024-02-21T02:29:21;99019.16;;;6.22;100.00
29907;BME280;16776;50.958;10.994;2024-02-21T02:31:48;99020.03;;;6.26;100.00
29907;BME280;16776;50.958;10.994;2024-02-21T02:34:15;99020.84;;;6.26;100.00
29907;BME280;16776;50.958;10.994;2024-02-21T02:36:42;99017.44;;;6.29;100.00
29907;BME280;16776;50.958;10.994;2024-02-21T02:39:08;99017.44;;;6.31;100.00
29907;BME280;16776;50.958;10.994;2024-02-21T02:41:36;99019.97;;;6.35;100.00
29907;BME280;16776;50.958;10.994;2024-02-21T02:44:03;99014.84;;;6.35;100.00
29907;BME280;16776;50.958;10.994;2024-02-21T02:46:30;99008.88;;;6.38;100.00
29907;BME280;16776;50.958;10.994;2024-02-21T02:48:56;99002.03;;;6.40;100.00
29907;BME280;16776;50.958;10.994;2024-02-21T02:51:23;99011.44;;;6.39;100.00
29907;BME280;16776;50.958;10.994;2024-02-21T02:53:49;99010.59;;;6.39;100.00
29907;BME280;16776;50.958;10.994;2024-02-21T02:56:16;99003.78;;;6.39;100.00
29907;BME280;16776;50.958;10.994;2024-02-21T02:58:44;99004.59;;;6.41;100.00
29907;BME280;16776;50.958;10.994;2024-02-21T03:01:10;99003.78;;;6.38;100.00
29907;BME280;16776;50.958;10.994;2024-02-21T03:03:37;99011.44;;;6.39;100.00
29907;BME280;16776;50.958;10.994;2024-02-21T03:06:03;98989.28;;;6.37;100.00
29907;BME280;16776;50.958;10.994;2024-02-21T03:08:30;98988.41;;;6.36;100.00
29907;BME280;16776;50.958;10.994;2024-02-21T03:10:57;98980.75;;;6.33;100.00
29907;BME280;16776;50.958;10.994;2024-02-21T03:13:24;98979.03;;;6.35;100.00
29907;BME280;16776;50.958;10.994;2024-02-21T03:15:52;98973.06;;;6.36;100.00
29907;BME280;16776;50.958;10.994;2024-02-21T03:18:19;98974.78;;;6.34;100.00
29907;BME280;16776;50.958;10.994;2024-02-21T03:20:45;98970.50;;;6.33;100.00
29907;BME280;16776;50.958;10.994;2024-02-21T03:23:12;98962.03;;;6.33;100.00
29907;BME280;16776;50.958;10.994;2024-02-21T03:25:38;98973.97;;;6.32;100.00
29907;BME280;16776;50.958;10.994;2024-02-21T03:28:05;98966.28;;;6.32;100.00
29907;BME280;16776;50.958;10.994;2024-02-21T03:30:32;98966.25;;;6.34;100.00
29907;BME280;16776;50.958;10.994;2024-02-21T03:33:00;98964.53;;;6.36;100.00
29907;BME280;16776;50.958;10.994;2024-02-21T03:35:27;98970.50;;;6.33;100.00
29907;BME280;16776;50.958;10.994;2024-02-21T03:37:54;98965.41;;;6.33;100.00
29907;BME280;16776;50.958;10.994;2024-02-21T03:40:20;98968.84;;;6.32;100.00
29907;BME280;16776;50.958;10.994;2024-02-21T03:42:47;98962.03;;;6.31;100.00
29907;BME280;16776;50.958;10.994;2024-02-21T03:45:13;98948.38;;;6.31;100.00
29907;BME280;16776;50.958;10.994;2024-02-21T03:47:40;98934.72;;;6.29;100.00
29907;BME280;16776;50.958;10.994;2024-02-21T03:50:08;98918.53;;;6.33;100.00
29907;BME280;16776;50.958;10.994;2024-02-21T03:52:35;98915.97;;;6.28;100.00
29907;BME280;16776;50.958;10.994;2024-02-21T03:55:02;98912.59;;;6.26;100.00
29907;BME280;16776;50.958;10.994;2024-02-21T03:57:28;98916.00;;;6.25;100.00
29907;BME280;16776;50.958;10.994;2024-02-21T03:59:55;98903.22;;;6.25;100.00
29907;BME280;16776;50.958;10.994;2024-02-21T04:02:22;98910.91;;;6.23;100.00
29907;BME280;16776;50.958;10.994;2024-02-21T04:04:48;98910.91;;;6.23;100.00
29907;BME280;16776;50.958;10.994;2024-02-21T04:07:16;98910.03;;;6.23;100.00
29907;BME280;16776;50.958;10.994;2024-02-21T04:09:43;98906.63;;;6.21;100.00
29907;BME280;16776;50.958;10.994;2024-02-21T04:12:09;98904.97;;;6.18;100.00
29907;BME280;16776;50.958;10.994;2024-02-21T04:14:36;98901.56;;;6.18;100.00
29907;BME280;16776;50.958;10.994;2024-02-21T04:17:02;98901.56;;;6.18;100.00
29907;BME280;16776;50.958;10.994;2024-02-21T04:19:30;98898.13;;;6.16;100.00
29907;BME280;16776;50.958;10.994;2024-02-21T04:21:57;98888.78;;;6.09;100.00
29907;BME280;16776;50.958;10.994;2024-02-21T04:24:25;98895.59;;;6.17;100.00
29907;BME280;16776;50.958;10.994;2024-02-21T04:26:51;98888.75;;;6.15;100.00
29907;BME280;16776;50.958;10.994;2024-02-21T04:29:18;98888.75;;;6.15;100.00
29907;BME280;16776;50.958;10.994;2024-02-21T04:31:44;98881.09;;;6.15;100.00
29907;BME280;16776;50.958;10.994;2024-02-21T04:34:11;98884.50;;;6.15;100.00
29907;BME280;16776;50.958;10.994;2024-02-21T04:36:38;98893.91;;;6.13;100.00
29907;BME280;16776;50.958;10.994;2024-02-21T04:39:04;98899.84;;;6.14;100.00
29907;BME280;16776;50.958;10.994;2024-02-21T04:41:32;98902.41;;;6.17;100.00
29907;BME280;16776;50.958;10.994;2024-02-21T04:43:59;98908.38;;;6.17;100.00
29907;BME280;16776;50.958;10.994;2024-02-21T04:46:25;98899.84;;;6.18;100.00
29907;BME280;16776;50.958;10.994;2024-02-21T04:48:52;98909.19;;;6.21;100.00
29907;BME280;16776;50.958;10.994;2024-02-21T04:51:18;98900.66;;;6.22;100.00
29907;BME280;16776;50.958;10.994;2024-02-21T04:53:45;98898.97;;;6.24;100.00
29907;BME280;16776;50.958;10.994;2024-02-21T04:56:11;98864.06;;;6.09;100.00
29907;BME280;16776;50.958;10.994;2024-02-21T04:58:39;98898.94;;;6.29;100.00
29907;BME280;16776;50.958;10.994;2024-02-21T05:01:06;98887.84;;;6.26;100.00
29907;BME280;16776;50.958;10.994;2024-02-21T05:03:33;98877.63;;;6.28;100.00
29907;BME280;16776;50.958;10.994;2024-02-21T05:05:59;98875.91;;;6.29;100.00
29907;BME280;16776;50.958;10.994;2024-02-21T05:08:26;98864.81;;;6.28;100.00
29907;BME280;16776;50.958;10.994;2024-02-21T05:10:53;98861.41;;;6.29;100.00
29907;BME280;16776;50.958;10.994;2024-02-21T05:13:20;98851.19;;;6.29;100.00
29907;BME280;16776;50.958;10.994;2024-02-21T05:15:48;98855.44;;;6.32;100.00
29907;BME280;16776;50.958;10.994;2024-02-21T05:18:14;98849.47;;;6.28;100.00
29907;BME280;16776;50.958;10.994;2024-02-21T05:20:41;98843.50;;;6.29;100.00
29907;BME280;16776;50.958;10.994;2024-02-21T05:23:07;98841.81;;;6.28;100.00
29907;BME280;16776;50.958;10.994;2024-02-21T05:25:34;98840.97;;;6.27;100.00
29907;BME280;16776;50.958;10.994;2024-02-21T05:28:00;98852.03;;;6.28;100.00
29907;BME280;16776;50.958;10.994;2024-02-21T05:30:28;98844.38;;;6.26;100.00
29907;BME280;16776;50.958;10.994;2024-02-21T05:32:56;98842.66;;;6.30;100.00
29907;BME280;16776;50.958;10.994;2024-02-21T05:35:25;98844.31;;;6.37;100.00
29907;BME280;16776;50.958;10.994;2024-02-21T05:37:52;98848.53;;;6.44;100.00
29907;BME280;16776;50.958;10.994;2024-02-21T05:40:19;98852.72;;;6.54;100.00
29907;BME280;16776;50.958;10.994;2024-02-21T05:42:45;98858.66;;;6.62;100.00
29907;BME280;16776;50.958;10.994;2024-02-21T05:45:12;98846.66;;;6.69;100.00
29907;BME280;16776;50.958;10.994;2024-02-21T05:47:41;98850.06;;;6.71;100.00
29907;BME280;16776;50.958;10.994;2024-02-21T05:50:09;98852.59;;;6.76;100.00
29907;BME280;16776;50.958;10.994;2024-02-21T05:52:36;98841.50;;;6.72;100.00
29907;BME280;16776;50.958;10.994;2024-02-21T05:55:03;98842.38;;;6.71;100.00
29907;BME280;16776;50.958;10.994;2024-02-21T05:57:30;98843.25;;;6.70;100.00
29907;BME280;16776;50.958;10.994;2024-02-21T05:59:56;98833.00;;;6.69;100.00
29907;BME280;16776;50.958;10.994;2024-02-21T06:02:23;98843.25;;;6.67;100.00
29907;BME280;16776;50.958;10.994;2024-02-21T06:04:49;98837.28;;;6.65;100.00
29907;BME280;16776;50.958;10.994;2024-02-21T06:07:17;98835.56;;;6.65;100.00
29907;BME280;16776;50.958;10.994;2024-02-21T06:09:44;98826.25;;;6.60;100.00
29907;BME280;16776;50.958;10.994;2024-02-21T06:12:10;98810.06;;;6.56;100.00
29907;BME280;16776;50.958;10.994;2024-02-21T06:14:37;98812.63;;;6.58;100.00
29907;BME280;16776;50.958;10.994;2024-02-21T06:17:03;98811.78;;;6.56;100.00
29907;BME280;16776;50.958;10.994;2024-02-21T06:19:30;98801.59;;;6.51;100.00
29907;BME280;16776;50.958;10.994;2024-02-21T06:21:57;98806.72;;;6.48;100.00
29907;BME280;16776;50.958;10.994;2024-02-21T06:24:24;98809.28;;;6.48;100.00
29907;BME280;16776;50.958;10.994;2024-02-21T06:26:51;98818.66;;;6.46;100.00
29907;BME280;16776;50.958;10.994;2024-02-21T06:29:18;98810.16;;;6.44;100.00
29907;BME280;16776;50.958;10.994;2024-02-21T06:31:44;98824.66;;;6.45;100.00
29907;BME280;16776;50.958;10.994;2024-02-21T06:34:11;98842.56;;;6.44;100.00
29907;BME280;16776;50.958;10.994;2024-02-21T06:36:37;98848.53;;;6.44;100.00
29907;BME280;16776;50.958;10.994;2024-02-21T06:39:04;98845.13;;;6.44;100.00
29907;BME280;16776;50.958;10.994;2024-02-21T06:41:34;98842.56;;;6.45;100.00
29907;BME280;16776;50.958;10.994;2024-02-21T06:44:01;98845.13;;;6.44;100.00
29907;BME280;16776;50.958;10.994;2024-02-21T06:46:28;98843.44;;;6.44;100.00
29907;BME280;16776;50.958;10.994;2024-02-21T06:48:55;98852.81;;;6.42;100.00
29907;BME280;16776;50.958;10.994;2024-02-21T06:51:22;98850.25;;;6.42;100.00
29907;BME280;16776;50.958;10.994;2024-02-21T06:53:49;98854.50;;;6.42;100.00
29907;BME280;16776;50.958;10.994;2024-02-21T06:56:16;98848.56;;;6.41;100.00
29907;BME280;16776;50.958;10.994;2024-02-21T06:58:43;98851.09;;;6.44;100.00
29907;BME280;16776;50.958;10.994;2024-02-21T07:01:10;98859.63;;;6.43;100.00
29907;BME280;16776;50.958;10.994;2024-02-21T07:03:37;98856.22;;;6.44;100.00
29907;BME280;16776;50.958;10.994;2024-02-21T07:06:04;98858.78;;;6.44;100.00
29907;BME280;16776;50.958;10.994;2024-02-21T07:08:31;98848.50;;;6.46;100.00
29907;BME280;16776;50.958;10.994;2024-02-21T07:10:57;98837.47;;;6.45;100.00
29907;BME280;16776;50.958;10.994;2024-02-21T07:13:24;98839.13;;;6.46;100.00
29907;BME280;16776;50.958;10.994;2024-02-21T07:15:51;98843.38;;;6.49;100.00
29907;BME280;16776;50.958;10.994;2024-02-21T07:18:18;98839.13;;;6.46;100.00
29907;BME280;16776;50.958;10.994;2024-02-21T07:20:45;98835.72;;;6.47;100.00
29907;BME280;16776;50.958;10.994;2024-02-21T07:23:11;98835.72;;;6.46;100.00
29907;BME280;16776;50.958;10.994;2024-02-21T07:25:38;98849.34;;;6.46;100.00
29907;BME280;16776;50.958;10.994;2024-02-21T07:28:05;98848.50;;;6.47;100.00
29907;BME280;16776;50.958;10.994;2024-02-21T07:30:34;98845.09;;;6.47;100.00
29907;BME280;16776;50.958;10.994;2024-02-21T07:33:02;98850.22;;;6.50;100.00
29907;BME280;16776;50.958;10.994;2024-02-21T07:35:29;98856.19;;;6.49;100.00
29907;BME280;16776;50.958;10.994;2024-02-21T07:37:55;98848.50;;;6.49;100.00
29907;BME280;16776;50.958;10.994;2024-02-21T07:40:23;98854.47;;;6.51;100.00
29907;BME280;16776;50.958;10.994;2024-02-21T07:42:49;98858.72;;;6.50;100.00
29907;BME280;16776;50.958;10.994;2024-02-21T07:45:16;98853.63;;;6.50;100.00
29907;BME280;16776;50.958;10.994;2024-02-21T07:47:43;98854.44;;;6.52;100.00
29907;BME280;16776;50.958;10.994;2024-02-21T07:50:11;98851.88;;;6.57;100.00
29907;BME280;16776;50.958;10.994;2024-02-21T07:52:38;98860.41;;;6.56;100.00
29907;BME280;16776;50.958;10.994;2024-02-21T07:55:05;98857.84;;;6.57;100.00
29907;BME280;16776;50.958;10.994;2024-02-21T07:57:31;98855.28;;;6.57;100.00
29907;BME280;16776;50.958;10.994;2024-02-21T07:59:58;98851.81;;;6.60;100.00
29907;BME280;16776;50.958;10.994;2024-02-21T08:02:24;98854.38;;;6.61;100.00
29907;BME280;16776;50.958;10.994;2024-02-21T08:04:51;98844.16;;;6.61;100.00
29907;BME280;16776;50.958;10.994;2024-02-21T08:07:19;98844.09;;;6.66;100.00
29907;BME280;16776;50.958;10.994;2024-02-21T08:09:45;98836.44;;;6.66;100.00
29907;BME280;16776;50.958;10.994;2024-02-21T08:12:12;98837.28;;;6.66;100.00
29907;BME280;16776;50.958;10.994;2024-02-21T08:14:38;98840.69;;;6.69;100.00
29907;BME280;16776;50.958;10.994;2024-02-21T08:17:05;98842.38;;;6.70;100.00
29907;BME280;16776;50.958;10.994;2024-02-21T08:19:31;98839.81;;;6.71;100.00
29907;BME280;16776;50.958;10.994;2024-02-21T08:21:58;98827.84;;;6.73;100.00
29907;BME280;16776;50.958;10.994;2024-02-21T08:24:26;98821.03;;;6.77;100.00
29907;BME280;16776;50.958;10.994;2024-02-21T08:26:53;98814.22;;;6.76;100.00
29907;BME280;16776;50.958;10.994;2024-02-21T08:29:19;98817.63;;;6.76;100.00
29907;BME280;16776;50.958;10.994;2024-02-21T08:31:46;98815.06;;;6.76;100.00
29907;BME280;16776;50.958;10.994;2024-02-21T08:34:12;98818.47;;;6.77;100.00
29907;BME280;16776;50.958;10.994;2024-02-21T08:36:39;98815.06;;;6.75;100.00
29907;BME280;16776;50.958;10.994;2024-02-21T08:39:06;98814.22;;;6.74;100.00
29907;BME280;16776;50.958;10.994;2024-02-21T08:41:34;98800.53;;;6.72;100.00
29907;BME280;16776;50.958;10.994;2024-02-21T08:44:00;98822.75;;;6.78;100.00
29907;BME280;16776;50.958;10.994;2024-02-21T08:46:28;98813.38;;;6.77;100.00
29907;BME280;16776;50.958;10.994;2024-02-21T08:48:54;98815.91;;;6.77;100.00
29907;BME280;16776;50.958;10.994;2024-02-21T08:51:21;98821.03;;;6.77;100.00
29907;BME280;16776;50.958;10.994;2024-02-21T08:53:48;98820.19;;;6.76;100.00
29907;BME280;16776;50.958;10.994;2024-02-21T08:56:15;98822.75;;;6.78;100.00
29907;BME280;16776;50.958;10.994;2024-02-21T08:58:44;98817.59;;;6.79;100.00
29907;BME280;16776;50.958;10.994;2024-02-21T09:01:10;98818.44;;;6.78;100.00
29907;BME280;16776;50.958;10.994;2024-02-21T09:03:37;98810.75;;;6.78;100.00
29907;BME280;16776;50.958;10.994;2024-02-21T09:06:05;98807.38;;;6.78;100.00
29907;BME280;16776;50.958;10.994;2024-02-21T09:08:32;98797.19;;;6.70;100.00
29907;BME280;16776;50.958;10.994;2024-02-21T09:10:59;98786.09;;;6.70;100.00
29907;BME280;16776;50.958;10.994;2024-02-21T09:13:26;98809.91;;;6.81;100.00
29907;BME280;16776;50.958;10.994;2024-02-21T09:15:54;98803.88;;;6.85;100.00
29907;BME280;16776;50.958;10.994;2024-02-21T09:18:20;98801.31;;;6.85;100.00
29907;BME280;16776;50.958;10.994;2024-02-21T09:20:47;98794.50;;;6.87;100.00
29907;BME280;16776;50.958;10.994;2024-02-21T09:23:14;98789.38;;;6.87;100.00
29907;BME280;16776;50.958;10.994;2024-02-21T09:25:40;98792.78;;;6.89;100.00
29907;BME280;16776;50.958;10.994;2024-02-21T09:28:07;98783.38;;;6.88;100.00
29907;BME280;16776;50.958;10.994;2024-02-21T09:30:34;98780.84;;;6.88;100.00
29907;BME280;16776;50.958;10.994;2024-02-21T09:33:02;98773.16;;;6.88;100.00
29907;BME280;16776;50.958;10.994;2024-02-21T09:35:30;98777.44;;;6.86;100.00
29907;BME280;16776;50.958;10.994;2024-02-21T09:37:58;98777.44;;;6.86;100.00
29907;BME280;16776;50.958;10.994;2024-02-21T09:40:25;98774.88;;;6.84;100.00
29907;BME280;16776;50.958;10.994;2024-02-21T09:43:02;98774.84;;;6.89;100.00
29907;BME280;16776;50.958;10.994;2024-02-21T09:45:32;98773.22;;;6.80;100.00
29907;BME280;16776;50.958;10.994;2024-02-21T09:48:15;98762.06;;;6.86;100.00
29907;BME280;16776;50.958;10.994;2024-02-21T09:50:45;98768.09;;;6.80;100.00
29907;BME280;16776;50.958;10.994;2024-02-21T09:53:14;98773.22;;;6.82;100.00
29907;BME280;16776;50.958;10.994;2024-02-21T09:55:43;98765.53;;;6.83;100.00
29907;BME280;16776;50.958;10.994;2024-02-21T09:58:10;98763.81;;;6.82;100.00
29907;BME280;16776;50.958;10.994;2024-02-21T10:00:37;98756.94;;;6.86;100.00
29907;BME280;16776;50.958;10.994;2024-02-21T10:03:05;98751.75;;;6.92;100.00
29907;BME280;16776;50.958;10.994;2024-02-21T10:05:35;98748.34;;;6.93;100.00
29907;BME280;16776;50.958;10.994;2024-02-21T10:08:03;98750.88;;;6.96;100.00
29907;BME280;16776;50.958;10.994;2024-02-21T10:10:29;98749.97;;;7.01;100.00
29907;BME280;16776;50.958;10.994;2024-02-21T10:12:56;98725.28;;;6.94;100.00
29907;BME280;16776;50.958;10.994;2024-02-21T10:15:24;98737.97;;;7.08;100.00
29907;BME280;16776;50.958;10.994;2024-02-21T10:17:58;98738.66;;;7.21;100.00
29907;BME280;16776;50.958;10.994;2024-02-21T10:20:26;98740.38;;;7.22;100.00
29907;BME280;16776;50.958;10.994;2024-02-21T10:23:00;98733.41;;;7.33;100.00
29907;BME280;16776;50.958;10.994;2024-02-21T10:25:28;98734.25;;;7.33;100.00
29907;BME280;16776;50.958;10.994;2024-02-21T10:27:55;98725.63;;;7.40;100.00
29907;BME280;16776;50.958;10.994;2024-02-21T10:30:22;98719.56;;;7.46;100.00
29907;BME280;16776;50.958;10.994;2024-02-21T10:32:49;98704.97;;;7.53;100.00
29907;BME280;16776;50.958;10.994;2024-02-21T10:35:26;98712.34;;;7.74;100.00
29907;BME280;16776;50.958;10.994;2024-02-21T10:37:54;98706.22;;;7.84;100.00
29907;BME280;16776;50.958;10.994;2024-02-21T10:40:22;98701.75;;;7.98;100.00
29907;BME280;16776;50.958;10.994;2024-02-21T10:42:51;98706.66;;;8.13;100.00
29907;BME280;16776;50.958;10.994;2024-02-21T10:45:20;98703.97;;;8.22;100.00
29907;BME280;16776;50.958;10.994;2024-02-21T10:47:52;98705.47;;;8.36;100.00
29907;BME280;16776;50.958;10.994;2024-02-21T10:50:24;98703.66;;;8.41;100.00
29907;BME280;16776;50.958;10.994;2024-02-21T10:52:58;98703.63;;;8.44;100.00
29907;BME280;16776;50.958;10.994;2024-02-21T10:55:34;98689.88;;;8.46;100.00
29907;BME280;16776;50.958;10.994;2024-02-21T10:58:03;98691.59;;;8.44;100.00
29907;BME280;16776;50.958;10.994;2024-02-21T11:00:30;98694.13;;;8.49;100.00
29907;BME280;16776;50.958;10.994;2024-02-21T11:02:58;98683.75;;;8.55;100.00
29907;BME280;16776;50.958;10.994;2024-02-21T11:05:26;98676.75;;;8.63;100.00
29907;BME280;16776;50.958;10.994;2024-02-21T11:07:55;98670.56;;;8.73;100.00
29907;BME280;16776;50.958;10.994;2024-02-21T11:10:23;98668.72;;;8.81;100.00
29907;BME280;16776;50.958;10.994;2024-02-21T11:12:52;98653.06;;;8.93;100.00
29907;BME280;16776;50.958;10.994;2024-02-21T11:15:19;98650.38;;;8.99;100.00
29907;BME280;16776;50.958;10.994;2024-02-21T11:17:54;98631.25;;;9.13;100.00
29907;BME280;16776;50.958;10.994;2024-02-21T11:20:31;98623.22;;;9.28;100.00
29907;BME280;16776;50.958;10.994;2024-02-21T11:23:00;98609.34;;;9.35;100.00
29907;BME280;16776;50.958;10.994;2024-02-21T11:25:27;98611.69;;;9.47;100.00
29907;BME280;16776;50.958;10.994;2024-02-21T11:27:59;98603.47;;;9.68;100.00
29907;BME280;16776;50.958;10.994;2024-02-21T11:30:26;98603.19;;;9.80;100.00
29907;BME280;16776;50.958;10.994;2024-02-21T11:32:59;98590.69;;;10.01;99.28
29907;BME280;16776;50.958;10.994;2024-02-21T11:35:30;98586.09;;;10.12;99.15
29907;BME280;16776;50.958;10.994;2024-02-21T11:38:08;98578.00;;;10.27;99.25
29907;BME280;16776;50.958;10.994;2024-02-21T11:40:38;98580.41;;;10.33;98.99
29907;BME280;16776;50.958;10.994;2024-02-21T11:43:05;98577.50;;;10.45;99.28
29907;BME280;16776;50.958;10.994;2024-02-21T11:45:32;98571.13;;;10.60;99.19
29907;BME280;16776;50.958;10.994;2024-02-21T11:47:59;98571.59;;;10.74;99.42
29907;BME280;16776;50.958;10.994;2024-02-21T11:50:29;98575.53;;;10.87;98.48
29907;BME280;16776;50.958;10.994;2024-02-21T11:52:55;98564.84;;;10.99;97.44
29907;BME280;16776;50.958;10.994;2024-02-21T11:55:24;98547.56;;;11.03;97.86
29907;BME280;16776;50.958;10.994;2024-02-21T11:57:50;98560.97;;;11.14;96.58
29907;BME280;16776;50.958;10.994;2024-02-21T12:00:18;98553.00;;;11.22;97.18
29907;BME280;16776;50.958;10.994;2024-02-21T12:02:45;98544.22;;;11.27;97.68
29907;BME280;16776;50.958;10.994;2024-02-21T12:05:12;98539.72;;;11.34;97.56
29907;BME280;16776;50.958;10.994;2024-02-21T12:07:40;98533.34;;;11.45;97.29
29907;BME280;16776;50.958;10.994;2024-02-21T12:10:08;98521.06;;;11.54;97.62
29907;BME280;16776;50.958;10.994;2024-02-21T12:12:37;98513.16;;;11.60;96.70
29907;BME280;16776;50.958;10.994;2024-02-21T12:15:05;98506.25;;;11.59;96.57
29907;BME280;16776;50.958;10.994;2024-02-21T12:17:32;98501.94;;;11.59;96.08
29907;BME280;16776;50.958;10.994;2024-02-21T12:19:59;98494.22;;;11.59;95.54
29907;BME280;16776;50.958;10.994;2024-02-21T12:22:26;98498.47;;;11.62;95.91
29907;BME280;16776;50.958;10.994;2024-02-21T12:24:53;98487.31;;;11.61;94.97
29907;BME280;16776;50.958;10.994;2024-02-21T12:27:20;98486.38;;;11.64;95.09
29907;BME280;16776;50.958;10.994;2024-02-21T12:29:48;98477.63;;;11.68;95.48
29907;BME280;16776;50.958;10.994;2024-02-21T12:32:15;98475.09;;;11.66;95.10
29907;BME280;16776;50.958;10.994;2024-02-21T12:34:41;98481.91;;;11.69;95.20
29907;BME280;16776;50.958;10.994;2024-02-21T12:37:08;98481.78;;;11.72;94.31
29907;BME280;16776;50.958;10.994;2024-02-21T12:39:35;98472.25;;;11.74;94.53
29907;BME280;16776;50.958;10.994;2024-02-21T12:42:04;98470.41;;;11.77;93.84
29907;BME280;16776;50.958;10.994;2024-02-21T12:44:30;98472.09;;;11.78;93.25
29907;BME280;16776;50.958;10.994;2024-02-21T12:46:58;98466.03;;;11.79;93.31
29907;BME280;16776;50.958;10.994;2024-02-21T12:49:25;98461.84;;;11.77;93.23
29907;BME280;16776;50.958;10.994;2024-02-21T12:51:55;98455.00;;;11.76;93.44